الصفحة الرئيسية
METAR-TAF:

METAR-TAF

مطار :

Nellis, نيفادا, الولايات المتحدة

دائرة عرض: 36-14N, خط طول: 115-02W, ارتفاع: 570 متر

مراقبة الطقس الحالي

تاريخ ووقت الإصدار 1ساعة و 6 دقيقة قبل الساعة 08:58UTC
ريح 3 عقدة من الشرق/الشمال الشرقي
درجة الحرارة 26°درجة مئوية
الرطوبة 11%
ضغط 1019 hPa
الرؤية: 16.1 كم
سماء صافية

METAR: KLSV 290858Z AUTO 06003KT 10SM CLR 26/M07 A3010 RMK AO2 SLP170 T02571070 $

زمن: 03:04 (10:04 UTC)

توقعات

التوقعات صالحة من29 الساعة 07 UTC إلى 30 الساعة 13 UTC
ريح 7 عقدة من الشمال الشرقي
الرؤية 10 كم أو أكثر
سماء صافية
أصبح
من 29 الساعة 17 UTC إلى 29 الساعة 18 UTC
ريح 10 عقدة من الشرق
الرؤية 10 كم أو أكثر
سماء صافية
أصبح
من 30 الساعة 01 UTC إلى 30 الساعة 02 UTC
ريح 6 عقدةمن اتجاهات متغيرة
الرؤية 10 كم أو أكثر
سماء صافية

TAF: KLSV 2907/3013 05007KT 9999 SKC QNH3010INS BECMG 2917/2918 10010KT 9999 SKC QNH3003INS BECMG 3001/3002 VRB06KT 9999 SKC QNH3006INS TX34/2923Z TN18/2914Z

أرصاد الطقس والتوقعات من أكثر من 4000 مطار (تقارير الطقس للمطار METAR والتنبؤ بالطقس بالمطارTAF).

المحطات المتاحة هي النقط الصفراء والحمراء على الخريطة.

حرك المؤشر فوق النقطة لمعرفة اسم المحطة.

ثم انقر لمعرفة أرصاد وتوقعات الطقس.

لتغيير الخارطة: اضغط على الأزرار الخضراء مع رمز الصليب الأسود للتكبير. على الزر الأخضر مع شرطة للتصغير، أو على الأسهم الخضراء للخرائط المجاورة.


METAR-TAF: